Holly Hill, Florida
Current Conditions -  °F | °C
As of 3:53 AM on Sunday 23 Nov 2014 (Local Time) from KDAB Reporting Station
Haze Haze  
Wind Chill: 71°   Ceiling: 2200
Heat Index: 71°   Visibility: 3mi
Dew Point: 69°   Wind: 8mph
Humidity: 93%   Direction: 140°SE
Pressure: 30.02"   Gusts: NA
Location:  29.25°N, 81.04°W
Report Text: KDAB 230853Z 14007KT 3SM BR OVC022 22/21 A3002 RMK AO2 RAE15B40E53 SLP166 P0001 60005 T02170206 56029
Loading
Personal Weather Stations






























Interactive Weather Map New forecast layout! Learn more

10-Day Weather Forecast

Advertisements
Track Severe Weather on mobile